createdAt,value
2022-10-23T00:01:48.070Z,78.77
2022-10-23T00:04:45.547Z,76.79
2022-10-23T00:07:21.632Z,80.11
2022-10-23T00:09:56.271Z,77.89
2022-10-23T00:12:58.338Z,78.67
2022-10-23T00:18:31.023Z,78.46
2022-10-23T00:23:50.256Z,77.38
2022-10-23T00:26:23.089Z,77.64
2022-10-23T00:29:08.094Z,77.86
2022-10-23T00:34:42.955Z,76.40
2022-10-23T00:37:46.715Z,76.90
2022-10-23T00:40:35.690Z,75.99
2022-10-23T00:43:16.019Z,77.02
2022-10-23T00:49:34.508Z,76.01
2022-10-23T00:52:16.480Z,75.67
2022-10-23T00:57:46.237Z,80.24
2022-10-23T01:03:39.951Z,77.76
2022-10-23T01:07:05.284Z,77.11
2022-10-23T01:10:05.337Z,77.32
2022-10-23T01:16:07.488Z,76.60
2022-10-23T01:19:14.936Z,76.11
2022-10-23T01:25:25.979Z,77.47
2022-10-23T01:31:14.757Z,87.05
2022-10-23T01:34:10.773Z,82.14
2022-10-23T01:36:58.539Z,79.02
2022-10-23T01:42:28.321Z,80.11
2022-10-23T01:45:15.280Z,78.12
2022-10-23T01:47:56.189Z,79.64
2022-10-23T01:50:43.816Z,78.50
2022-10-23T01:53:26.903Z,79.68
2022-10-23T01:56:34.700Z,80.02
2022-10-23T01:59:20.963Z,80.08
2022-10-23T02:02:28.651Z,80.21
2022-10-23T02:05:08.929Z,83.34
2022-10-23T02:07:55.950Z,81.55
2022-10-23T02:11:02.065Z,79.57
2022-10-23T02:14:00.666Z,79.09
2022-10-23T02:16:51.765Z,77.81
2022-10-23T02:19:34.091Z,77.65
2022-10-23T02:25:33.253Z,78.36
2022-10-23T02:28:22.587Z,77.79
2022-10-23T02:31:03.207Z,77.26
2022-10-23T02:34:00.917Z,76.84
2022-10-23T02:36:53.095Z,76.53
2022-10-23T02:42:11.585Z,75.51
2022-10-23T02:45:03.578Z,75.08
2022-10-23T03:43:09.205Z,78.89
2022-10-23T03:52:13.284Z,81.32
2022-10-23T04:26:19.008Z,82.09
2022-10-23T04:29:09.949Z,82.01
2022-10-23T04:32:18.532Z,77.81
2022-10-23T04:35:18.959Z,81.19
2022-10-23T04:41:19.402Z,78.48
2022-10-23T04:47:27.722Z,76.51
2022-10-23T04:50:42.553Z,81.85
2022-10-23T04:56:27.292Z,81.12
2022-10-23T04:59:12.785Z,82.30
2022-10-23T05:05:20.200Z,78.87
2022-10-23T05:17:06.258Z,80.85
2022-10-23T05:19:46.132Z,80.14
2022-10-23T05:22:24.034Z,81.37
2022-10-23T05:25:05.985Z,85.30
2022-10-23T05:27:40.723Z,86.80
2022-10-23T05:30:45.735Z,86.05
2022-10-23T05:36:56.542Z,80.89
2022-10-23T05:39:46.430Z,79.49
2022-10-23T05:42:23.005Z,79.33
2022-10-23T05:45:11.211Z,79.66
2022-10-23T05:48:22.753Z,79.17
2022-10-23T05:51:25.582Z,77.57
2022-10-23T05:54:17.384Z,79.24
2022-10-23T05:56:58.075Z,81.32
2022-10-23T06:02:39.008Z,81.33
2022-10-23T06:05:22.159Z,79.63
2022-10-23T06:08:05.320Z,80.03
2022-10-23T06:10:39.397Z,82.86
2022-10-23T06:13:11.079Z,80.75
2022-10-23T06:16:12.171Z,83.26
2022-10-23T06:19:01.882Z,79.89
2022-10-23T06:21:49.213Z,78.86
2022-10-23T06:24:38.571Z,78.85
2022-10-23T06:27:12.938Z,80.66
2022-10-23T06:29:56.575Z,80.75
2022-10-23T06:32:34.976Z,80.98
2022-10-23T06:35:25.928Z,78.80
2022-10-23T06:37:58.274Z,82.66
2022-10-23T06:40:37.170Z,87.22
2022-10-23T06:43:10.088Z,83.71
2022-10-23T06:48:21.754Z,84.27
2022-10-23T06:50:58.821Z,81.22
2022-10-23T06:53:32.127Z,83.24
2022-10-23T06:56:14.986Z,85.41
2022-10-23T06:58:52.071Z,87.28
2022-10-23T07:04:06.927Z,85.09
2022-10-23T07:06:46.037Z,83.54
2022-10-23T07:09:30.867Z,85.09
2022-10-23T07:12:08.993Z,86.85
2022-10-23T07:14:47.412Z,87.59
2022-10-23T07:17:21.599Z,86.72
2022-10-23T07:19:50.809Z,83.29
2022-10-23T07:22:18.742Z,85.98
2022-10-23T07:24:56.216Z,88.65
2022-10-23T07:27:30.807Z,88.98
2022-10-23T07:29:58.667Z,86.74
2022-10-23T07:32:29.307Z,84.77
2022-10-23T07:34:57.228Z,84.79
2022-10-23T07:37:27.070Z,83.17
2022-10-23T07:40:02.022Z,85.64
2022-10-23T07:42:33.131Z,85.25
2022-10-23T07:45:00.282Z,86.55
2022-10-23T07:47:29.281Z,85.91
2022-10-23T07:50:02.861Z,84.07
2022-10-23T07:52:32.182Z,84.36
2022-10-23T07:55:02.535Z,85.14
2022-10-23T07:57:31.233Z,85.46
2022-10-23T07:59:58.071Z,85.71
2022-10-23T08:02:25.095Z,85.19
2022-10-23T08:04:56.278Z,81.76
2022-10-23T08:07:27.764Z,82.07
2022-10-23T08:09:55.640Z,82.34
2022-10-23T08:12:23.829Z,81.28
2022-10-23T08:14:56.128Z,81.69
2022-10-23T08:17:26.341Z,85.37
2022-10-23T08:19:55.759Z,83.15
2022-10-23T08:22:24.289Z,84.63
2022-10-23T08:24:56.389Z,84.26
2022-10-23T08:50:42.466Z,87.88
2022-10-23T08:53:48.164Z,88.81
2022-10-23T08:56:21.147Z,86.96
2022-10-23T08:58:54.597Z,89.97
2022-10-23T09:01:27.599Z,88.05
2022-10-23T09:03:54.953Z,87.90
2022-10-23T09:06:25.180Z,87.55
2022-10-23T09:08:53.185Z,86.79
2022-10-23T09:11:37.904Z,88.23
2022-10-23T09:14:25.386Z,87.17
2022-10-23T09:16:52.607Z,87.37
2022-10-23T09:19:26.529Z,86.73
2022-10-23T09:21:56.618Z,86.05
2022-10-23T09:24:25.822Z,86.45
2022-10-23T09:27:17.327Z,88.31
2022-10-23T09:29:49.760Z,88.34
2022-10-23T09:32:38.509Z,83.84
2022-10-23T09:35:05.842Z,85.94
2022-10-23T09:37:40.346Z,85.06
2022-10-23T09:40:16.917Z,86.87
2022-10-23T09:43:10.168Z,86.15
2022-10-23T09:45:38.745Z,88.23
2022-10-23T09:48:13.531Z,87.65
2022-10-23T09:50:51.466Z,87.84
2022-10-23T09:53:23.328Z,86.32
2022-10-23T10:19:06.405Z,84.21
2022-10-23T10:21:38.857Z,83.08
2022-10-23T10:24:09.076Z,84.65
2022-10-23T10:26:56.212Z,83.12
2022-10-23T10:29:31.959Z,82.99
2022-10-23T10:32:04.284Z,80.96
2022-10-23T10:34:51.616Z,79.58
2022-10-23T10:37:28.837Z,78.04
2022-10-23T10:40:11.749Z,77.16
2022-10-23T10:42:38.684Z,74.94
2022-10-23T10:45:15.974Z,74.51
2022-10-23T10:47:45.916Z,74.41
2022-10-23T10:50:45.416Z,75.22
2022-10-23T10:53:21.356Z,73.72
2022-10-23T10:55:50.836Z,72.29
2022-10-23T10:58:21.788Z,73.75
2022-10-23T11:00:50.713Z,74.45
2022-10-23T11:03:28.726Z,73.30
2022-10-23T11:08:28.754Z,75.66
2022-10-23T11:10:59.017Z,75.07
2022-10-23T11:13:37.016Z,77.03
2022-10-23T11:16:09.181Z,77.45
2022-10-23T11:18:36.648Z,76.53
2022-10-23T11:21:08.420Z,78.80
2022-10-23T11:23:42.870Z,77.38
2022-10-23T11:26:24.189Z,76.41
2022-10-23T11:29:13.987Z,80.28
2022-10-23T11:31:53.731Z,80.02
2022-10-23T11:34:39.348Z,80.33
2022-10-23T11:37:07.037Z,81.36
2022-10-23T11:39:34.937Z,81.81
2022-10-23T11:42:04.759Z,81.94
2022-10-23T11:44:50.587Z,83.00
2022-10-23T11:47:39.236Z,82.35
2022-10-23T11:50:06.995Z,81.45
2022-10-23T11:52:45.741Z,81.96
2022-10-23T11:55:19.363Z,80.49
2022-10-23T11:58:02.595Z,85.29
2022-10-23T12:00:30.170Z,83.16
2022-10-23T12:02:59.131Z,83.04
2022-10-23T12:05:35.756Z,83.21
2022-10-23T12:08:04.597Z,82.83
2022-10-23T12:10:34.710Z,81.74
2022-10-23T12:13:05.148Z,81.98
2022-10-23T12:15:33.020Z,82.17
2022-10-23T12:18:14.752Z,81.17
2022-10-23T12:20:41.630Z,81.79
2022-10-23T12:23:27.306Z,81.99
2022-10-23T12:25:57.158Z,82.25
2022-10-23T12:28:35.406Z,80.38
2022-10-23T12:31:20.533Z,81.45
2022-10-23T12:33:58.901Z,80.35
2022-10-23T12:36:25.908Z,80.89
2022-10-23T12:38:55.001Z,82.38
2022-10-23T12:41:24.607Z,80.16
2022-10-23T12:43:59.179Z,82.10
2022-10-23T12:46:34.277Z,81.29
2022-10-23T12:49:02.655Z,80.53
2022-10-23T12:51:30.535Z,78.34
2022-10-23T12:53:57.422Z,78.21
2022-10-23T12:56:29.420Z,78.90
2022-10-23T12:59:01.736Z,79.42
2022-10-23T13:01:30.280Z,81.93
2022-10-23T13:04:03.119Z,78.99
2022-10-23T13:06:29.886Z,80.81
2022-10-23T13:08:57.527Z,79.29
2022-10-23T13:11:25.216Z,77.35
2022-10-23T13:13:52.391Z,78.08
2022-10-23T13:16:23.366Z,76.37
2022-10-23T13:18:50.319Z,78.24
2022-10-23T13:21:18.955Z,76.53
2022-10-23T13:23:46.171Z,75.89
2022-10-23T13:26:32.026Z,77.46
2022-10-23T13:28:59.117Z,76.33
2022-10-23T13:31:34.565Z,77.00
2022-10-23T13:34:01.433Z,75.82
2022-10-23T13:36:29.567Z,75.53
2022-10-23T13:38:59.077Z,75.84
2022-10-23T13:41:26.679Z,73.87
2022-10-23T13:43:53.443Z,75.47
2022-10-23T13:46:21.993Z,79.31
2022-10-23T13:48:49.340Z,79.97
2022-10-23T13:51:38.845Z,79.94
2022-10-23T13:54:14.796Z,78.87
2022-10-23T13:56:41.752Z,79.27
2022-10-23T13:59:10.427Z,81.36
2022-10-23T14:01:37.435Z,79.50
2022-10-23T14:04:05.030Z,81.12
2022-10-23T14:06:32.498Z,80.35
2022-10-23T14:08:59.278Z,81.21
2022-10-23T14:11:26.498Z,83.42
2022-10-23T15:05:11.460Z,77.96
2022-10-23T15:07:48.974Z,80.26
2022-10-23T15:12:49.698Z,80.51
2022-10-23T15:15:16.419Z,79.12
2022-10-23T15:17:44.225Z,81.39
2022-10-23T15:20:11.371Z,80.76
2022-10-23T15:22:38.140Z,79.83
2022-10-23T15:25:05.130Z,79.10
2022-10-23T15:27:31.947Z,80.89
2022-10-23T15:29:58.843Z,80.15
2022-10-23T15:32:25.582Z,80.35
2022-10-23T15:34:53.965Z,78.53
2022-10-23T15:37:20.821Z,78.97
2022-10-23T15:39:47.735Z,78.42
2022-10-23T15:42:14.586Z,76.83
2022-10-23T15:44:41.629Z,78.24
2022-10-23T15:47:08.642Z,78.82
2022-10-23T15:49:35.721Z,79.09
2022-10-23T15:52:04.494Z,76.45
2022-10-23T15:54:32.877Z,79.28
2022-10-23T15:57:00.901Z,81.07
2022-10-23T15:59:28.949Z,83.81
2022-10-23T16:01:56.574Z,81.77
2022-10-23T16:04:23.803Z,83.24
2022-10-23T16:06:50.895Z,78.68
2022-10-23T16:09:17.862Z,80.41
2022-10-23T16:11:44.717Z,77.94
2022-10-23T16:14:16.272Z,78.96
2022-10-23T16:16:43.412Z,78.58
2022-10-23T16:19:10.744Z,77.69
2022-10-23T16:21:37.622Z,77.88
2022-10-23T16:24:05.995Z,79.57
2022-10-23T16:26:33.390Z,79.62
2022-10-23T16:29:03.509Z,78.00
2022-10-23T16:31:30.906Z,78.83
2022-10-23T16:33:59.221Z,79.95
2022-10-23T16:36:26.466Z,85.21
2022-10-23T16:38:53.663Z,84.21
2022-10-23T16:41:20.535Z,81.79
2022-10-23T16:43:47.585Z,79.15
2022-10-23T16:46:15.950Z,78.56
2022-10-23T16:48:43.371Z,81.69
2022-10-23T16:51:11.583Z,82.37
2022-10-23T16:53:38.750Z,81.74
2022-10-23T16:56:06.388Z,83.29
2022-10-23T16:58:33.962Z,83.26
2022-10-23T17:01:02.435Z,82.06
2022-10-23T17:03:30.637Z,84.38
2022-10-23T17:06:01.655Z,82.03
2022-10-23T17:08:29.379Z,84.71
2022-10-23T17:11:10.790Z,83.04
2022-10-23T17:13:39.499Z,82.33
2022-10-23T17:16:12.723Z,86.38
2022-10-23T17:18:43.673Z,91.04
2022-10-23T17:21:11.324Z,89.84
2022-10-23T17:23:38.282Z,86.35
2022-10-23T17:26:08.573Z,87.30
2022-10-23T17:28:40.149Z,84.92
2022-10-23T17:31:13.388Z,85.20
2022-10-23T17:33:40.844Z,86.63
2022-10-23T17:36:08.013Z,87.99
2022-10-23T17:38:36.073Z,88.72
2022-10-23T17:41:11.921Z,86.25
2022-10-23T17:43:38.887Z,87.48
2022-10-23T17:46:06.959Z,91.16
2022-10-23T17:48:35.475Z,89.27
2022-10-23T17:51:03.720Z,87.18
2022-10-23T17:53:30.657Z,87.36
2022-10-23T17:55:57.728Z,85.05
2022-10-23T17:58:27.501Z,84.91
2022-10-23T18:00:54.542Z,84.12
2022-10-23T18:03:21.550Z,81.66
2022-10-23T18:05:49.766Z,80.59
2022-10-23T18:08:17.562Z,81.94
2022-10-23T18:10:44.418Z,83.48
2022-10-23T18:13:11.226Z,83.87
2022-10-23T18:15:39.694Z,82.05
2022-10-23T18:18:08.166Z,87.68
2022-10-23T18:20:39.741Z,87.80
2022-10-23T18:23:06.951Z,84.07
2022-10-23T18:25:34.455Z,81.92
2022-10-23T18:28:02.661Z,82.43
2022-10-23T18:30:29.702Z,82.44
2022-10-23T18:32:58.407Z,81.98
2022-10-23T18:35:25.640Z,84.20
2022-10-23T18:37:52.528Z,84.11
2022-10-23T18:40:20.544Z,85.32
2022-10-23T18:42:48.827Z,81.67
2022-10-23T18:45:15.819Z,83.50
2022-10-23T18:47:43.388Z,85.51
2022-10-23T18:50:10.494Z,88.48
2022-10-23T18:52:37.305Z,88.93
2022-10-23T18:55:06.214Z,92.68
2022-10-23T18:57:33.838Z,87.16
2022-10-23T19:00:01.526Z,84.60
2022-10-23T19:02:28.868Z,82.79
2022-10-23T19:04:56.032Z,83.30
2022-10-23T19:07:22.919Z,82.38
2022-10-23T19:09:49.705Z,80.23
2022-10-23T19:12:18.077Z,80.13
2022-10-23T19:14:45.511Z,79.20
2022-10-23T19:17:18.667Z,78.29
2022-10-23T19:19:50.268Z,77.62
2022-10-23T19:22:17.431Z,76.76
2022-10-23T19:24:46.007Z,76.32
2022-10-23T19:27:14.200Z,75.92
2022-10-23T19:29:43.589Z,78.23
2022-10-23T19:32:11.444Z,76.77
2022-10-23T19:34:40.915Z,75.89
2022-10-23T19:37:08.350Z,74.96
2022-10-23T19:39:36.028Z,75.13
2022-10-23T19:42:04.228Z,74.41
2022-10-23T19:44:32.140Z,74.41
2022-10-23T19:46:59.023Z,73.14
2022-10-23T19:49:26.051Z,73.56
2022-10-23T19:51:54.030Z,74.32
2022-10-23T19:54:22.224Z,73.78
2022-10-23T19:56:49.347Z,73.46
2022-10-23T19:59:16.668Z,74.47
2022-10-23T20:01:48.768Z,74.10
2022-10-23T20:04:17.017Z,74.75
2022-10-23T20:06:44.279Z,74.11
2022-10-23T20:09:11.326Z,73.61
2022-10-23T20:11:39.925Z,73.19
2022-10-23T20:14:07.722Z,71.93
2022-10-23T20:16:39.003Z,73.73
2022-10-23T20:19:14.591Z,77.03
2022-10-23T20:21:45.881Z,79.35
2022-10-23T20:24:15.012Z,76.71
2022-10-23T20:26:46.635Z,78.20
2022-10-23T20:29:13.963Z,83.58
2022-10-23T20:31:40.862Z,86.11
2022-10-23T20:34:08.716Z,87.57
2022-10-23T20:36:37.957Z,88.79
2022-10-23T20:39:10.492Z,86.38
2022-10-23T20:41:39.898Z,85.68
2022-10-23T20:44:08.642Z,87.61
2022-10-23T20:46:36.342Z,86.80
2022-10-23T20:49:03.859Z,87.93
2022-10-23T20:51:32.229Z,85.49
2022-10-23T20:53:59.588Z,84.77
2022-10-23T20:56:44.284Z,86.95
2022-10-23T20:59:14.697Z,86.57
2022-10-23T21:01:42.888Z,89.72
2022-10-23T21:04:11.978Z,86.80
2022-10-23T21:06:51.924Z,88.65
2022-10-23T21:09:25.849Z,92.27
2022-10-23T21:11:54.371Z,84.99
2022-10-23T21:14:23.301Z,86.49
2022-10-23T21:16:52.849Z,86.63
2022-10-23T21:19:19.897Z,85.38
2022-10-23T21:21:48.756Z,86.89
2022-10-23T21:24:16.416Z,89.00
2022-10-23T21:26:44.201Z,89.70
2022-10-23T21:29:20.127Z,86.67
2022-10-23T21:31:55.402Z,88.43
2022-10-23T21:34:22.587Z,85.47
2022-10-23T21:39:39.255Z,90.63
2022-10-23T21:42:08.064Z,89.73
2022-10-23T21:44:34.872Z,90.13
2022-10-23T21:47:01.774Z,93.92
2022-10-23T21:49:28.566Z,90.12
2022-10-23T21:51:55.438Z,90.31
2022-10-23T21:54:22.701Z,89.37
2022-10-23T21:56:50.760Z,89.81
2022-10-23T21:59:18.629Z,91.52
2022-10-23T22:01:48.754Z,90.85
2022-10-23T22:04:17.507Z,88.68
2022-10-23T22:06:45.244Z,89.59
2022-10-23T22:09:13.447Z,91.69
2022-10-23T22:11:40.409Z,93.48
2022-10-23T22:14:07.285Z,91.91
2022-10-23T22:16:34.242Z,90.77
2022-10-23T22:19:01.448Z,92.83
2022-10-23T22:21:29.786Z,95.02
2022-10-23T22:23:59.079Z,89.49
2022-10-23T22:26:27.911Z,90.42
2022-10-23T22:28:56.151Z,89.01
2022-10-23T22:31:25.289Z,92.20
2022-10-23T22:33:52.542Z,88.42
2022-10-23T22:36:19.410Z,90.07
2022-10-23T22:38:46.280Z,88.49
2022-10-23T22:41:13.783Z,89.76
2022-10-23T22:43:40.716Z,89.71
2022-10-23T22:46:08.994Z,88.25
2022-10-23T22:48:36.583Z,86.94
2022-10-23T22:51:06.307Z,86.21
2022-10-23T22:53:35.316Z,84.30
2022-10-23T22:56:05.703Z,85.61
2022-10-23T22:58:32.423Z,83.74
2022-10-23T23:01:04.220Z,85.76
2022-10-23T23:03:31.681Z,85.53
2022-10-23T23:05:58.621Z,82.69
2022-10-23T23:08:25.600Z,81.79
2022-10-23T23:10:58.687Z,80.64
2022-10-23T23:13:25.847Z,80.71
2022-10-23T23:15:53.141Z,78.51
2022-10-23T23:18:20.716Z,80.78
2022-10-23T23:20:49.554Z,78.29
2022-10-23T23:23:16.730Z,77.91
2022-10-23T23:25:46.126Z,77.47
2022-10-23T23:28:16.144Z,77.00
2022-10-23T23:30:43.838Z,79.55
2022-10-23T23:33:11.664Z,77.63
2022-10-23T23:35:42.279Z,77.73
2022-10-23T23:38:09.443Z,78.10
2022-10-23T23:40:37.673Z,78.15
2022-10-23T23:43:04.974Z,80.26
2022-10-23T23:45:34.638Z,80.20
2022-10-23T23:48:02.211Z,79.26
2022-10-23T23:50:31.147Z,81.04
2022-10-23T23:52:58.039Z,81.73
2022-10-23T23:55:26.406Z,86.47
2022-10-23T23:57:57.264Z,84.68
